createdAt,value
2022-11-10T00:01:13.825Z,1017.4
2022-11-10T00:06:06.413Z,1017.47
2022-11-10T00:10:58.938Z,1017.56
2022-11-10T00:15:51.396Z,1017.56
2022-11-10T00:20:43.610Z,1017.61
2022-11-10T00:25:36.057Z,1017.71
2022-11-10T00:30:28.538Z,1017.76
2022-11-10T00:35:21.065Z,1017.82
2022-11-10T00:40:13.638Z,1017.85
2022-11-10T00:45:06.246Z,1017.88
2022-11-10T00:49:58.728Z,1017.86
2022-11-10T00:54:51.314Z,1017.9
2022-11-10T00:59:45.804Z,1017.97
2022-11-10T01:04:37.996Z,1017.96
2022-11-10T01:09:30.447Z,1017.99
2022-11-10T01:14:23.004Z,1018.04
2022-11-10T01:19:15.569Z,1018.12
2022-11-10T01:24:08.036Z,1018.15
2022-11-10T01:29:00.652Z,1018.21
2022-11-10T01:33:53.323Z,1018.29
2022-11-10T01:38:45.772Z,1018.37
2022-11-10T01:43:38.451Z,1018.39
2022-11-10T01:48:30.920Z,1018.44
2022-11-10T01:53:23.684Z,1018.51
2022-11-10T01:58:15.831Z,1018.62
2022-11-10T02:03:08.387Z,1018.72
2022-11-10T02:08:00.855Z,1018.78
2022-11-10T02:12:53.537Z,1018.88
2022-11-10T02:17:46.008Z,1018.91
2022-11-10T02:22:38.531Z,1018.96
2022-11-10T02:27:31.041Z,1018.99
2022-11-10T02:32:23.501Z,1018.95
2022-11-10T02:37:16.101Z,1019
2022-11-10T02:42:08.809Z,1019.12
2022-11-10T02:47:01.248Z,1019.11
2022-11-10T02:51:53.877Z,1019.16
2022-11-10T02:56:46.409Z,1019.26
2022-11-10T03:01:39.047Z,1019.32
2022-11-10T03:11:26.812Z,1019.39
2022-11-10T03:21:09.248Z,1019.45
2022-11-10T03:30:54.564Z,1019.62
2022-11-10T03:35:46.978Z,1019.72
2022-11-10T03:41:04.151Z,1019.77
2022-11-10T03:45:32.050Z,1019.82
2022-11-10T03:50:24.622Z,1019.83
2022-11-10T03:55:17.139Z,1019.83
2022-11-10T04:00:09.695Z,1019.89
2022-11-10T04:05:02.247Z,1019.94
2022-11-10T04:09:54.761Z,1020.02
2022-11-10T04:14:47.255Z,1020.08
2022-11-10T04:19:36.827Z,1020.18
2022-11-10T04:24:30.418Z,1020.2
2022-11-10T04:29:23.183Z,1020.29
2022-11-10T04:34:15.850Z,1020.4
2022-11-10T04:39:08.161Z,1020.44
2022-11-10T04:44:00.912Z,1020.53
2022-11-10T04:48:53.606Z,1020.55
2022-11-10T04:53:46.210Z,1020.6
2022-11-10T04:58:38.761Z,1020.65
2022-11-10T05:03:31.332Z,1020.75
2022-11-10T05:08:23.898Z,1020.81
2022-11-10T05:13:16.677Z,1020.93
2022-11-10T05:18:09.543Z,1020.98
2022-11-10T05:23:02.146Z,1020.91
2022-11-10T05:27:55.019Z,1020.93
2022-11-10T05:32:47.975Z,1021
2022-11-10T05:37:40.878Z,1021.06
2022-11-10T05:42:33.378Z,1021.15
2022-11-10T05:47:26.105Z,1021.24
2022-11-10T05:52:18.995Z,1021.35
2022-11-10T05:57:11.753Z,1021.51
2022-11-10T06:02:04.532Z,1021.63
2022-11-10T06:06:57.190Z,1021.75
2022-11-10T06:11:49.852Z,1021.89
2022-11-10T06:16:42.551Z,1021.94
2022-11-10T06:21:35.218Z,1022.05
2022-11-10T06:26:27.779Z,1022.13
2022-11-10T06:31:20.543Z,1022.19
2022-11-10T06:36:13.270Z,1022.26
2022-11-10T06:41:05.890Z,1022.46
2022-11-10T06:45:58.607Z,1022.51
2022-11-10T06:50:51.286Z,1022.53
2022-11-10T06:55:44.042Z,1022.7
2022-11-10T07:00:36.673Z,1022.78
2022-11-10T07:05:29.402Z,1022.89
2022-11-10T07:10:22.077Z,1022.93
2022-11-10T07:15:14.782Z,1022.98
2022-11-10T07:20:07.429Z,1023.05
2022-11-10T07:24:59.901Z,1023.19
2022-11-10T07:29:52.495Z,1023.3
2022-11-10T07:34:45.273Z,1023.35
2022-11-10T07:39:38.142Z,1023.44
2022-11-10T07:44:31.033Z,1023.5
2022-11-10T07:49:23.574Z,1023.59
2022-11-10T07:54:16.290Z,1023.53
2022-11-10T07:59:08.995Z,1023.6
2022-11-10T08:04:01.664Z,1023.63
2022-11-10T08:08:54.412Z,1023.75
2022-11-10T08:13:47.148Z,1023.73
2022-11-10T08:18:39.787Z,1023.82
2022-11-10T08:23:32.403Z,1023.94
2022-11-10T08:28:25.063Z,1024.12
2022-11-10T08:33:17.850Z,1024.23
2022-11-10T08:38:10.552Z,1024.29
2022-11-10T08:43:03.155Z,1024.4
2022-11-10T08:47:56.010Z,1024.51
2022-11-10T08:52:48.848Z,1024.55
2022-11-10T08:57:41.579Z,1024.56
2022-11-10T09:07:26.863Z,1024.58
2022-11-10T09:17:12.180Z,1024.85
2022-11-10T09:26:57.584Z,1024.98
2022-11-10T09:31:50.196Z,1024.92
2022-11-10T09:36:42.926Z,1024.97
2022-11-10T09:41:35.710Z,1025.08
2022-11-10T09:46:28.486Z,1025.13
2022-11-10T09:51:21.131Z,1025.04
2022-11-10T09:56:13.796Z,1025.28
2022-11-10T10:01:06.509Z,1025.22
2022-11-10T10:05:59.066Z,1025.2
2022-11-10T10:10:51.752Z,1025.2
2022-11-10T10:15:44.629Z,1025.22
2022-11-10T10:20:37.244Z,1025.19
2022-11-10T10:25:29.899Z,1025.24
2022-11-10T10:30:22.727Z,1025.2
2022-11-10T10:35:15.414Z,1025.18
2022-11-10T10:40:08.133Z,1025.21
2022-11-10T10:45:00.733Z,1025.25
2022-11-10T10:49:53.460Z,1025.17
2022-11-10T10:54:46.242Z,1025.06
2022-11-10T10:59:38.856Z,1025.11
2022-11-10T11:04:31.639Z,1025.24
2022-11-10T11:09:24.354Z,1025.17
2022-11-10T11:14:17.115Z,1025.19
2022-11-10T11:19:09.904Z,1025.21
2022-11-10T11:24:02.296Z,1025.17
2022-11-10T11:28:54.892Z,1025.24
2022-11-10T11:33:47.634Z,1025.29
2022-11-10T11:38:40.535Z,1025.33
2022-11-10T11:43:33.330Z,1025.31
2022-11-10T11:48:26.212Z,1025.35
2022-11-10T11:53:18.910Z,1025.43
2022-11-10T11:58:11.529Z,1025.56
2022-11-10T12:03:04.274Z,1025.56
2022-11-10T12:07:56.935Z,1025.56
2022-11-10T12:12:49.705Z,1025.56
2022-11-10T12:17:42.240Z,1025.68
2022-11-10T12:22:34.947Z,1025.72
2022-11-10T12:27:27.846Z,1025.74
2022-11-10T12:32:20.443Z,1025.74
2022-11-10T12:37:13.155Z,1025.69
2022-11-10T12:42:05.944Z,1025.77
2022-11-10T12:46:58.587Z,1025.8
2022-11-10T12:51:51.205Z,1025.75
2022-11-10T12:56:44.321Z,1025.84
2022-11-10T13:01:37.091Z,1025.79
2022-11-10T13:06:29.794Z,1025.9
2022-11-10T13:11:22.574Z,1025.91
2022-11-10T13:16:15.280Z,1026.03
2022-11-10T13:21:07.866Z,1026.2
2022-11-10T13:26:00.537Z,1026.23
2022-11-10T13:30:53.164Z,1026.31
2022-11-10T13:35:45.897Z,1026.3
2022-11-10T13:40:38.442Z,1026.39
2022-11-10T13:45:31.160Z,1026.34
2022-11-10T13:50:23.736Z,1026.36
2022-11-10T13:55:16.761Z,1026.32
2022-11-10T14:00:08.960Z,1026.4
2022-11-10T14:05:01.617Z,1026.42
2022-11-10T14:09:54.308Z,1026.53
2022-11-10T14:14:46.999Z,1026.64
2022-11-10T14:19:39.655Z,1026.57
2022-11-10T14:24:32.138Z,1026.55
2022-11-10T14:29:24.729Z,1026.6
2022-11-10T14:34:17.285Z,1026.67
2022-11-10T14:39:09.881Z,1026.69
2022-11-10T14:44:03.229Z,1026.74
2022-11-10T14:48:55.734Z,1026.87
2022-11-10T14:53:48.439Z,1026.92
2022-11-10T14:58:41.172Z,1026.99
2022-11-10T15:03:33.762Z,1027.03
2022-11-10T15:08:26.377Z,1027.11
2022-11-10T15:13:18.940Z,1027.23
2022-11-10T15:23:04.423Z,1027.29
2022-11-10T15:32:49.528Z,1027.37
2022-11-10T15:37:42.205Z,1027.34
2022-11-10T15:42:35.056Z,1027.4
2022-11-10T15:47:27.441Z,1027.43
2022-11-10T15:52:20.044Z,1027.46
2022-11-10T15:57:12.926Z,1027.51
2022-11-10T16:02:05.577Z,1027.61
2022-11-10T16:06:57.890Z,1027.68
2022-11-10T16:11:50.558Z,1027.74
2022-11-10T16:16:43.495Z,1027.71
2022-11-10T16:21:36.101Z,1027.78
2022-11-10T16:26:28.488Z,1027.85
2022-11-10T16:31:21.140Z,1027.84
2022-11-10T16:36:14.048Z,1027.81
2022-11-10T16:41:06.720Z,1027.88
2022-11-10T16:45:59.330Z,1028.01
2022-11-10T16:50:51.815Z,1027.99
2022-11-10T16:55:44.235Z,1028.2
2022-11-10T17:00:36.937Z,1028.25
2022-11-10T17:05:29.509Z,1028.1
2022-11-10T17:10:21.875Z,1028.09
2022-11-10T17:15:14.489Z,1028.1
2022-11-10T17:20:06.917Z,1028.18
2022-11-10T17:24:59.459Z,1028.19
2022-11-10T17:29:52.082Z,1028.31
2022-11-10T17:34:44.594Z,1028.3
2022-11-10T17:39:37.213Z,1028.35
2022-11-10T17:44:29.584Z,1028.36
2022-11-10T17:49:22.049Z,1028.47
2022-11-10T17:54:14.743Z,1028.45
2022-11-10T17:59:07.400Z,1028.42
2022-11-10T18:08:47.306Z,1028.67
2022-11-10T18:13:40.979Z,1028.7
2022-11-10T18:18:33.801Z,1028.89
2022-11-10T18:23:26.701Z,1028.98
2022-11-10T18:28:19.078Z,1028.82
2022-11-10T18:33:12.510Z,1028.71
2022-11-10T18:38:04.096Z,1028.74
2022-11-10T18:42:56.564Z,1028.79
2022-11-10T18:47:49.174Z,1028.87
2022-11-10T18:52:41.699Z,1028.77
2022-11-10T18:57:35.511Z,1028.7
2022-11-10T19:02:26.746Z,1028.73
2022-11-10T19:07:19.284Z,1028.75
2022-11-10T19:12:11.674Z,1028.82
2022-11-10T19:17:05.248Z,1028.84
2022-11-10T19:21:57.578Z,1028.83
2022-11-10T19:26:49.225Z,1028.82
2022-11-10T19:31:42.787Z,1028.84
2022-11-10T19:36:34.788Z,1028.84
2022-11-10T19:41:27.225Z,1028.99
2022-11-10T19:46:19.641Z,1029.04
2022-11-10T19:51:12.211Z,1029.12
2022-11-10T19:56:04.898Z,1029.22
2022-11-10T20:00:57.344Z,1029.23
2022-11-10T20:05:51.927Z,1029.38
2022-11-10T20:10:42.440Z,1029.45
2022-11-10T20:15:36.090Z,1029.42
2022-11-10T20:20:28.537Z,1029.33
2022-11-10T20:25:20.037Z,1029.37
2022-11-10T20:30:12.688Z,1029.37
2022-11-10T20:35:05.352Z,1029.4
2022-11-10T20:39:57.843Z,1029.48
2022-11-10T20:44:50.341Z,1029.51
2022-11-10T20:49:42.941Z,1029.54
2022-11-10T20:59:28.356Z,1029.57
2022-11-10T21:04:20.777Z,1029.5
2022-11-10T21:09:13.298Z,1029.42
2022-11-10T21:14:06.096Z,1029.47
2022-11-10T21:18:58.623Z,1029.5
2022-11-10T21:23:48.084Z,1029.61
2022-11-10T21:28:41.598Z,1029.62
2022-11-10T21:33:34.636Z,1029.66
2022-11-10T21:38:27.143Z,1029.66
2022-11-10T21:43:19.921Z,1029.62
2022-11-10T21:48:12.364Z,1029.7
2022-11-10T21:53:05.142Z,1029.77
2022-11-10T21:57:57.479Z,1029.81
2022-11-10T22:02:50.177Z,1029.85
2022-11-10T22:07:42.640Z,1029.89
2022-11-10T22:12:35.465Z,1029.89
2022-11-10T22:17:27.804Z,1029.86
2022-11-10T22:22:20.470Z,1029.85
2022-11-10T22:27:13.264Z,1029.78
2022-11-10T22:32:05.970Z,1029.91
2022-11-10T22:36:58.438Z,1029.94
2022-11-10T22:41:50.975Z,1029.88
2022-11-10T22:46:43.621Z,1029.84
2022-11-10T22:51:36.028Z,1029.9
2022-11-10T22:56:28.150Z,1029.98
2022-11-10T23:01:20.845Z,1029.9
2022-11-10T23:06:13.324Z,1029.8
2022-11-10T23:11:05.826Z,1029.77
2022-11-10T23:15:58.140Z,1029.72
2022-11-10T23:20:50.743Z,1029.89
2022-11-10T23:25:43.519Z,1029.79
2022-11-10T23:30:35.866Z,1029.77
2022-11-10T23:35:28.303Z,1029.86
2022-11-10T23:40:21.146Z,1029.92
2022-11-10T23:45:13.694Z,1030.07
2022-11-10T23:50:06.562Z,1030.22
2022-11-10T23:54:59.202Z,1030.28
2022-11-10T23:59:51.795Z,1030.24
